createdAt,value
2019-04-27T00:00:40.538Z,99348.21
2019-04-27T00:02:24.841Z,99342.39
2019-04-27T00:04:04.076Z,99342.17
2019-04-27T00:05:40.340Z,99336.95
2019-04-27T00:07:16.958Z,99333.15
2019-04-27T00:08:59.101Z,99333.22
2019-04-27T00:10:51.098Z,99328.80
2019-04-27T00:12:26.559Z,99327.58
2019-04-27T00:14:00.940Z,99331.53
2019-04-27T00:15:36.809Z,99331.58
2019-04-27T00:17:43.530Z,99328.75
2019-04-27T00:19:13.063Z,99331.67
2019-04-27T00:20:48.637Z,99333.20
2019-04-27T00:22:39.766Z,99326.45
2019-04-27T00:24:14.465Z,99327.63
2019-04-27T00:25:48.744Z,99326.57
2019-04-27T00:27:26.161Z,99328.59
2019-04-27T00:29:00.384Z,99330.68
2019-04-27T00:30:35.628Z,99329.55
2019-04-27T00:32:10.036Z,99332.53
2019-04-27T00:33:44.255Z,99329.55
2019-04-27T00:35:20.113Z,99320.73
2019-04-27T00:36:58.679Z,99330.71
2019-04-27T00:38:53.470Z,99323.99
2019-04-27T00:40:33.541Z,99322.06
2019-04-27T00:42:08.408Z,99318.52
2019-04-27T00:43:42.778Z,99318.63
2019-04-27T00:45:18.601Z,99319.77
2019-04-27T00:46:53.383Z,99312.61
2019-04-27T00:48:27.844Z,99315.55
2019-04-27T00:50:03.611Z,99317.67
2019-04-27T00:51:37.972Z,99317.70
2019-04-27T00:53:13.372Z,99324.16
2019-04-27T00:54:47.865Z,99314.09
2019-04-27T00:56:29.748Z,99317.50
2019-04-27T00:58:13.045Z,99318.09
2019-04-27T01:00:07.189Z,99313.91
2019-04-27T01:01:55.000Z,99315.78
2019-04-27T01:03:30.904Z,99314.25
2019-04-27T01:05:08.157Z,99316.94
2019-04-27T01:06:43.757Z,99315.00
2019-04-27T01:08:18.885Z,99306.47
2019-04-27T01:09:53.743Z,99309.69
2019-04-27T01:11:27.968Z,99309.03
2019-04-27T01:13:03.322Z,99309.71
2019-04-27T01:14:37.892Z,99315.66
2019-04-27T01:16:14.674Z,99289.59
2019-04-27T01:17:49.027Z,99314.59
2019-04-27T01:19:23.553Z,99312.54
2019-04-27T01:20:59.094Z,99309.02
2019-04-27T01:22:33.496Z,99307.66
2019-04-27T01:24:08.973Z,99307.37
2019-04-27T01:25:44.915Z,99308.77
2019-04-27T01:27:35.842Z,99305.05
2019-04-27T01:29:11.699Z,99299.55
2019-04-27T01:30:49.000Z,99298.47
2019-04-27T01:32:23.436Z,99299.37
2019-04-27T01:33:59.007Z,99294.29
2019-04-27T01:35:33.536Z,99290.67
2019-04-27T01:37:09.309Z,99286.63
2019-04-27T01:38:43.620Z,99289.11
2019-04-27T01:40:19.335Z,99286.25
2019-04-27T01:41:54.029Z,99282.61
2019-04-27T01:43:28.471Z,99279.98
2019-04-27T01:45:06.114Z,99282.16
2019-04-27T01:46:40.365Z,99288.55
2019-04-27T01:48:23.027Z,99290.42
2019-04-27T01:49:50.580Z,99286.98
2019-04-27T01:51:24.809Z,99283.71
2019-04-27T01:52:59.105Z,99280.98
2019-04-27T01:54:33.337Z,99281.53
2019-04-27T01:56:09.200Z,99274.30
2019-04-27T01:57:43.620Z,99280.32
2019-04-27T01:59:19.768Z,99273.37
2019-04-27T02:00:59.455Z,99276.01
2019-04-27T02:02:35.566Z,99275.27
2019-04-27T02:04:14.408Z,99270.89
2019-04-27T02:05:50.272Z,99265.58
2019-04-27T02:07:24.928Z,99272.52
2019-04-27T02:08:59.593Z,99267.02
2019-04-27T02:10:34.080Z,99269.91
2019-04-27T02:12:09.424Z,99269.97
2019-04-27T02:13:43.928Z,99263.66
2019-04-27T02:15:19.172Z,99261.56
2019-04-27T02:16:53.512Z,99269.14
2019-04-27T02:18:35.624Z,99268.66
2019-04-27T02:20:05.098Z,99269.16
2019-04-27T02:21:39.384Z,99264.98
2019-04-27T02:23:13.601Z,99265.53
2019-04-27T02:24:49.260Z,99264.16
2019-04-27T02:26:23.680Z,99256.63
2019-04-27T02:27:59.545Z,99259.58
2019-04-27T02:29:39.077Z,99260.42
2019-04-27T02:31:26.973Z,99263.14
2019-04-27T02:33:20.264Z,99263.55
2019-04-27T02:35:02.398Z,99262.83
2019-04-27T02:36:38.866Z,99257.41
2019-04-27T02:38:12.499Z,99257.09
2019-04-27T02:39:46.845Z,99251.44
2019-04-27T02:41:21.061Z,99252.51
2019-04-27T02:42:55.877Z,99248.91
2019-04-27T02:44:34.433Z,99256.98
2019-04-27T02:46:09.550Z,99250.64
2019-04-27T02:47:44.065Z,99252.81
2019-04-27T02:49:20.129Z,99254.44
2019-04-27T02:50:55.933Z,99247.64
2019-04-27T02:52:31.804Z,99251.27
2019-04-27T02:54:06.038Z,99246.03
2019-04-27T02:55:40.807Z,99244.30
2019-04-27T02:57:15.034Z,99246.73
2019-04-27T02:58:49.899Z,99251.91
2019-04-27T03:00:24.235Z,99251.34
2019-04-27T03:02:00.712Z,99243.05
2019-04-27T03:03:35.208Z,99246.33
2019-04-27T03:05:12.722Z,99246.16
2019-04-27T03:06:45.521Z,99240.98
2019-04-27T03:08:20.177Z,99246.53
2019-04-27T03:09:54.608Z,99244.78
2019-04-27T03:11:30.671Z,99245.98
2019-04-27T03:13:12.412Z,99244.66
2019-04-27T03:14:50.600Z,99239.27
2019-04-27T03:16:32.359Z,99243.25
2019-04-27T03:18:09.874Z,99245.05
2019-04-27T03:20:00.832Z,99244.50
2019-04-27T03:21:42.658Z,99238.22
2019-04-27T03:23:17.041Z,99239.16
2019-04-27T03:25:09.897Z,99238.69
2019-04-27T03:26:50.110Z,99241.40
2019-04-27T03:28:23.788Z,99233.67
2019-04-27T03:29:59.715Z,99239.24
2019-04-27T03:31:34.061Z,99234.61
2019-04-27T03:33:11.938Z,99233.38
2019-04-27T03:34:44.249Z,99238.75
2019-04-27T03:36:21.553Z,99236.08
2019-04-27T03:37:54.518Z,99228.73
2019-04-27T03:39:29.967Z,99226.94
2019-04-27T03:41:04.753Z,99234.89
2019-04-27T03:42:40.710Z,99233.34
2019-04-27T03:44:15.141Z,99234.73
2019-04-27T03:45:51.761Z,99235.69
2019-04-27T03:47:25.279Z,99229.47
2019-04-27T03:49:00.136Z,99230.11
2019-04-27T03:50:39.892Z,99232.49
2019-04-27T03:52:29.930Z,99226.91
2019-04-27T03:54:19.387Z,99233.32
2019-04-27T03:56:05.123Z,99230.02
2019-04-27T03:57:47.013Z,99236.05
2019-04-27T03:59:22.885Z,99232.14
2019-04-27T04:00:59.884Z,99239.66
2019-04-27T04:02:33.163Z,99232.53
2019-04-27T04:04:10.091Z,99236.20
2019-04-27T04:05:43.221Z,99232.66
2019-04-27T04:07:19.468Z,99233.38
2019-04-27T04:08:55.229Z,99235.55
2019-04-27T04:10:31.158Z,99238.69
2019-04-27T04:12:09.443Z,99238.80
2019-04-27T04:13:44.500Z,99240.05
2019-04-27T04:15:36.508Z,99239.20
2019-04-27T04:17:12.739Z,99230.20
2019-04-27T04:19:00.381Z,99235.91
2019-04-27T04:20:33.817Z,99238.53
2019-04-27T04:22:10.237Z,99232.02
2019-04-27T04:23:43.921Z,99232.71
2019-04-27T04:25:20.014Z,99236.84
2019-04-27T04:26:54.010Z,99227.09
2019-04-27T04:28:29.626Z,99227.72
2019-04-27T04:30:09.800Z,99227.37
2019-04-27T04:31:44.603Z,99228.52
2019-04-27T04:33:20.603Z,99226.95
2019-04-27T04:34:57.620Z,99229.34
2019-04-27T04:36:31.854Z,99230.23
2019-04-27T04:38:06.128Z,99229.59
2019-04-27T04:39:40.726Z,99224.90
2019-04-27T04:41:20.081Z,99219.86
2019-04-27T04:42:56.245Z,99219.11
2019-04-27T04:44:36.432Z,99219.36
2019-04-27T04:46:29.808Z,99220.86
2019-04-27T04:48:05.984Z,99219.70
2019-04-27T04:49:40.209Z,99220.08
2019-04-27T04:51:14.441Z,99219.69
2019-04-27T04:52:49.922Z,99218.67
2019-04-27T04:54:24.875Z,99219.20
2019-04-27T04:56:00.404Z,99216.87
2019-04-27T04:57:34.858Z,99221.64
2019-04-27T04:59:10.062Z,99215.30
2019-04-27T05:00:44.456Z,99210.50
2019-04-27T05:02:19.160Z,99214.80
2019-04-27T05:03:53.443Z,99219.03
2019-04-27T05:05:29.132Z,99214.90
2019-04-27T05:07:03.749Z,99210.69
2019-04-27T05:08:39.340Z,99215.60
2019-04-27T05:10:13.682Z,99205.48
2019-04-27T05:11:48.683Z,99208.13
2019-04-27T05:13:23.033Z,99209.14
2019-04-27T05:14:58.944Z,99209.88
2019-04-27T05:16:33.268Z,99210.97
2019-04-27T05:18:09.131Z,99203.64
2019-04-27T05:19:44.260Z,99202.12
2019-04-27T05:21:20.124Z,99200.37
2019-04-27T05:22:54.434Z,99197.64
2019-04-27T05:24:29.255Z,99194.80
2019-04-27T05:26:03.695Z,99200.33
2019-04-27T05:27:38.953Z,99197.15
2019-04-27T05:29:13.840Z,99192.49
2019-04-27T05:30:48.934Z,99191.00
2019-04-27T05:32:23.396Z,99188.56
2019-04-27T05:34:00.464Z,99181.90
2019-04-27T05:35:34.738Z,99181.59
2019-04-27T05:37:09.093Z,99179.17
2019-04-27T05:38:45.923Z,99181.06
2019-04-27T05:40:19.229Z,99178.39
2019-04-27T05:41:53.460Z,99175.67
2019-04-27T05:43:30.156Z,99170.91
2019-04-27T05:45:22.773Z,99164.48
2019-04-27T05:47:13.290Z,99172.22
2019-04-27T05:48:48.857Z,99169.86
2019-04-27T05:50:35.273Z,99169.78
2019-04-27T05:51:59.527Z,99171.16
2019-04-27T05:53:33.949Z,99167.31
2019-04-27T05:55:08.702Z,99169.06
2019-04-27T05:56:44.504Z,99166.26
2019-04-27T05:58:19.586Z,99166.05
2019-04-27T05:59:54.196Z,99161.68
2019-04-27T06:01:29.664Z,99158.62
2019-04-27T06:03:04.160Z,99158.56
2019-04-27T06:04:39.040Z,99157.14
2019-04-27T06:06:14.268Z,99158.70
2019-04-27T06:07:48.872Z,99156.86
2019-04-27T06:09:23.264Z,99158.53
2019-04-27T06:10:59.073Z,99158.30
2019-04-27T06:12:33.379Z,99157.50
2019-04-27T06:14:09.512Z,99151.15
2019-04-27T06:15:43.530Z,99151.28
2019-04-27T06:17:19.438Z,99148.44
2019-04-27T06:18:53.940Z,99147.97
2019-04-27T06:20:29.373Z,99142.28
2019-04-27T06:22:03.602Z,99140.77
2019-04-27T06:23:39.086Z,99137.80
2019-04-27T06:25:13.752Z,99137.67
2019-04-27T06:26:49.654Z,99136.06
2019-04-27T06:28:23.905Z,99135.45
2019-04-27T06:29:59.598Z,99132.91
2019-04-27T06:31:33.824Z,99135.41
2019-04-27T06:33:09.364Z,99130.96
2019-04-27T06:34:44.427Z,99128.81
2019-04-27T06:36:19.876Z,99122.31
2019-04-27T06:37:54.465Z,99125.03
2019-04-27T06:39:29.761Z,99129.58
2019-04-27T06:41:04.287Z,99128.11
2019-04-27T06:42:40.159Z,99122.46
2019-04-27T06:44:14.393Z,99119.08
2019-04-27T06:45:48.905Z,99115.70
2019-04-27T06:47:23.184Z,99059.47
2019-04-27T06:48:59.144Z,99114.44
2019-04-27T06:50:33.400Z,99108.58
2019-04-27T06:52:08.662Z,99108.66
2019-04-27T06:53:43.018Z,99106.52
2019-04-27T06:55:18.760Z,99105.11
2019-04-27T06:56:53.180Z,99104.23
2019-04-27T06:58:29.120Z,99101.35
2019-04-27T07:00:03.687Z,99094.70
2019-04-27T07:01:39.035Z,99095.19
2019-04-27T07:03:13.443Z,99093.14
2019-04-27T07:04:49.025Z,99091.84
2019-04-27T07:06:23.616Z,99087.73
2019-04-27T07:07:59.115Z,99089.23
2019-04-27T07:09:33.453Z,99084.41
2019-04-27T07:11:11.028Z,99087.41
2019-04-27T07:12:43.597Z,99084.81
2019-04-27T07:14:19.528Z,99077.80
2019-04-27T07:15:55.336Z,99078.40
2019-04-27T07:17:29.571Z,99076.16
2019-04-27T07:19:04.453Z,99074.47
2019-04-27T07:20:38.907Z,99073.89
2019-04-27T07:22:13.241Z,99072.88
2019-04-27T07:23:59.681Z,99070.17
2019-04-27T07:25:34.096Z,99068.13
2019-04-27T07:27:09.364Z,99066.34
2019-04-27T07:28:43.657Z,99061.46
2019-04-27T07:30:19.014Z,99058.30
2019-04-27T07:31:53.457Z,99058.28
2019-04-27T07:33:29.524Z,99057.64
2019-04-27T07:35:03.996Z,99055.14
2019-04-27T07:36:39.369Z,99061.14
2019-04-27T07:38:13.817Z,99060.10
2019-04-27T07:39:49.188Z,99058.28
2019-04-27T07:41:23.595Z,99057.39
2019-04-27T07:43:02.180Z,99052.97
2019-04-27T07:44:39.068Z,99054.58
2019-04-27T07:46:14.106Z,99053.00
2019-04-27T07:47:49.964Z,99054.86
2019-04-27T07:49:24.185Z,99054.18
2019-04-27T07:50:59.075Z,99056.41
2019-04-27T07:52:33.652Z,99052.44
2019-04-27T07:54:08.982Z,99057.48
2019-04-27T07:55:43.287Z,99055.05
2019-04-27T07:57:19.433Z,99052.25
2019-04-27T07:58:53.412Z,99045.91
2019-04-27T08:00:28.957Z,99050.99
2019-04-27T08:02:03.628Z,99047.79
2019-04-27T08:03:39.013Z,99048.80
2019-04-27T08:05:13.564Z,99045.39
2019-04-27T08:06:49.532Z,99043.36
2019-04-27T08:08:23.649Z,99043.31
2019-04-27T08:10:01.132Z,99039.97
2019-04-27T08:11:33.782Z,99039.27
2019-04-27T08:13:09.580Z,99039.59
2019-04-27T08:14:43.925Z,99035.78
2019-04-27T08:16:18.303Z,99037.39
2019-04-27T08:17:59.197Z,99041.53
2019-04-27T08:19:33.805Z,98978.48
2019-04-27T08:21:08.962Z,99035.34
2019-04-27T08:22:43.205Z,99034.50
2019-04-27T08:24:20.037Z,99028.73
2019-04-27T08:25:54.329Z,99026.85
2019-04-27T08:27:36.217Z,99026.41
2019-04-27T08:29:32.825Z,99028.64
2019-04-27T08:31:18.738Z,99028.13
2019-04-27T08:32:55.010Z,99028.73
2019-04-27T08:34:36.848Z,99023.00
2019-04-27T08:36:11.180Z,99025.52
2019-04-27T08:37:45.389Z,99021.61
2019-04-27T08:39:20.230Z,99022.34
2019-04-27T08:40:54.453Z,99010.12
2019-04-27T08:42:29.409Z,99016.58
2019-04-27T08:44:03.849Z,99015.93
2019-04-27T08:45:39.162Z,99007.48
2019-04-27T08:47:14.717Z,99012.05
2019-04-27T08:48:49.118Z,99009.89
2019-04-27T08:50:23.610Z,99000.44
2019-04-27T08:52:01.340Z,99006.79
2019-04-27T08:53:33.740Z,98994.28
2019-04-27T08:55:09.539Z,98991.16
2019-04-27T08:56:44.112Z,98990.79
2019-04-27T08:58:19.651Z,98991.98
2019-04-27T08:59:54.220Z,98987.84
2019-04-27T09:01:29.945Z,98986.63
2019-04-27T09:03:04.407Z,98974.42
2019-04-27T09:04:39.507Z,98981.73
2019-04-27T09:06:13.955Z,98978.22
2019-04-27T09:08:06.035Z,98968.58
2019-04-27T09:09:41.883Z,98977.67
2019-04-27T09:11:20.719Z,98974.00
2019-04-27T09:13:14.860Z,98972.02
2019-04-27T09:15:02.949Z,98965.65
2019-04-27T09:16:38.986Z,98968.28
2019-04-27T09:18:14.861Z,98964.23
2019-04-27T09:19:51.265Z,98966.89
2019-04-27T09:21:25.553Z,98964.87
2019-04-27T09:22:59.779Z,98962.03
2019-04-27T09:24:33.992Z,98950.34
2019-04-27T09:26:10.925Z,98949.89
2019-04-27T09:27:44.614Z,98947.91
2019-04-27T09:29:19.789Z,98948.03
2019-04-27T09:30:54.917Z,98948.03
2019-04-27T09:32:29.213Z,98947.09
2019-04-27T09:34:03.438Z,98945.16
2019-04-27T09:35:37.696Z,98941.41
2019-04-27T09:37:11.922Z,98942.28
2019-04-27T09:38:46.504Z,98939.89
2019-04-27T09:40:20.907Z,98940.36
2019-04-27T09:41:57.157Z,98936.50
2019-04-27T09:43:31.705Z,98936.91
2019-04-27T09:45:07.376Z,98927.41
2019-04-27T09:46:41.596Z,98926.91
2019-04-27T09:48:17.606Z,98922.66
2019-04-27T09:49:52.030Z,98924.44
2019-04-27T09:51:26.244Z,98918.17
2019-04-27T09:53:00.452Z,98904.94
2019-04-27T09:54:36.209Z,98917.86
2019-04-27T09:56:10.576Z,98921.31
2019-04-27T09:57:46.529Z,98917.04
2019-04-27T09:59:20.881Z,98916.38
2019-04-27T10:00:56.675Z,98915.09
2019-04-27T10:02:31.593Z,98917.17
2019-04-27T10:04:05.803Z,98915.05
2019-04-27T10:05:40.004Z,98915.11
2019-04-27T10:07:14.222Z,98910.64
2019-04-27T10:08:48.483Z,98911.11
2019-04-27T10:10:22.764Z,98907.09
2019-04-27T10:11:56.994Z,98906.41
2019-04-27T10:13:31.216Z,98903.05
2019-04-27T10:15:06.857Z,98903.86
2019-04-27T10:16:41.072Z,98903.68
2019-04-27T10:18:16.337Z,98897.30
2019-04-27T10:19:50.908Z,98896.72
2019-04-27T10:21:26.429Z,98895.16
2019-04-27T10:23:00.808Z,98890.18
2019-04-27T10:24:35.832Z,98892.62
2019-04-27T10:26:10.098Z,98885.30
2019-04-27T10:27:45.953Z,98884.50
2019-04-27T10:29:20.215Z,98882.31
2019-04-27T10:30:55.736Z,98882.78
2019-04-27T10:32:30.057Z,98884.33
2019-04-27T10:34:05.873Z,98882.97
2019-04-27T10:35:40.274Z,98878.02
2019-04-27T10:37:16.103Z,98878.77
2019-04-27T10:38:50.368Z,98876.08
2019-04-27T10:40:26.247Z,98874.64
2019-04-27T10:42:00.452Z,98869.91
2019-04-27T10:43:34.712Z,98872.11
2019-04-27T10:45:10.771Z,98864.65
2019-04-27T10:46:44.984Z,98869.29
2019-04-27T10:48:19.846Z,98872.41
2019-04-27T10:49:54.132Z,98870.17
2019-04-27T10:51:28.360Z,98870.83
2019-04-27T10:53:02.665Z,98864.84
2019-04-27T10:54:36.912Z,98872.26
2019-04-27T10:56:11.196Z,98870.85
2019-04-27T10:57:45.486Z,98865.48
2019-04-27T10:59:20.703Z,98870.59
2019-04-27T11:00:59.740Z,98866.48
2019-04-27T11:02:33.993Z,98865.28
2019-04-27T11:04:18.837Z,98863.58
2019-04-27T11:05:54.696Z,98864.17
2019-04-27T11:07:30.598Z,98859.67
2019-04-27T11:09:07.480Z,98859.80
2019-04-27T11:10:41.691Z,98858.58
2019-04-27T11:12:15.967Z,98862.76
2019-04-27T11:13:50.164Z,98862.75
2019-04-27T11:15:26.410Z,98859.90
2019-04-27T11:17:00.678Z,98858.85
2019-04-27T11:18:36.055Z,98855.31
2019-04-27T11:20:11.044Z,98850.45
2019-04-27T11:21:45.612Z,98850.96
2019-04-27T11:23:19.829Z,98845.09
2019-04-27T11:24:56.029Z,98847.27
2019-04-27T11:26:30.002Z,98841.95
2019-04-27T11:28:05.702Z,98841.13
2019-04-27T11:29:40.278Z,98841.83
2019-04-27T11:31:16.985Z,98844.42
2019-04-27T11:32:54.602Z,98842.80
2019-04-27T11:34:32.924Z,98845.82
2019-04-27T11:36:20.878Z,98841.12
2019-04-27T11:37:56.725Z,98840.02
2019-04-27T11:39:30.936Z,98841.12
2019-04-27T11:41:05.152Z,98836.45
2019-04-27T11:42:39.416Z,98840.09
2019-04-27T11:44:15.273Z,98840.27
2019-04-27T11:45:50.764Z,98834.89
2019-04-27T11:47:24.988Z,98833.91
2019-04-27T11:48:59.700Z,98831.55
2019-04-27T11:50:35.645Z,98834.03
2019-04-27T11:52:09.773Z,98836.37
2019-04-27T11:53:43.980Z,98831.88
2019-04-27T11:55:19.032Z,98833.20
2019-04-27T11:56:53.275Z,98827.30
2019-04-27T11:58:27.480Z,98825.98
2019-04-27T12:00:02.117Z,98822.31
2019-04-27T12:01:37.228Z,98813.00
2019-04-27T12:03:11.524Z,98814.06
2019-04-27T12:04:46.657Z,98811.24
2019-04-27T12:06:21.063Z,98808.12
2019-04-27T12:07:56.059Z,98806.63
2019-04-27T12:09:30.566Z,98804.69
2019-04-27T12:11:05.893Z,98802.45
2019-04-27T12:12:40.490Z,98799.70
2019-04-27T12:14:14.709Z,98795.29
2019-04-27T12:15:48.918Z,98793.33
2019-04-27T12:17:23.136Z,98793.72
2019-04-27T12:18:59.061Z,98788.55
2019-04-27T12:20:33.275Z,98783.70
2019-04-27T12:22:07.480Z,98780.53
2019-04-27T12:23:41.689Z,98777.84
2019-04-27T12:25:16.347Z,98776.45
2019-04-27T12:26:55.808Z,98771.50
2019-04-27T12:28:41.827Z,98772.19
2019-04-27T12:30:21.135Z,98770.80
2019-04-27T12:46:08.256Z,98737.72
2019-04-27T12:47:43.144Z,98735.37
2019-04-27T12:49:17.698Z,98730.75
2019-04-27T12:50:51.913Z,98728.91
2019-04-27T12:52:26.233Z,98723.41
2019-04-27T12:54:05.976Z,98725.53
2019-04-27T12:55:42.120Z,98715.42
2019-04-27T12:57:20.907Z,98718.22
2019-04-27T12:58:59.824Z,98713.91
2019-04-27T13:00:41.426Z,98714.83
2019-04-27T13:02:15.629Z,98709.64
2019-04-27T13:03:50.493Z,98709.02
2019-04-27T13:05:25.814Z,98699.66
2019-04-27T13:07:00.368Z,98701.02
2019-04-27T13:08:35.739Z,98698.80
2019-04-27T13:10:10.569Z,98692.30
2019-04-27T13:11:45.927Z,98688.66
2019-04-27T13:13:20.678Z,98688.50
2019-04-27T13:14:55.164Z,98685.21
2019-04-27T13:16:30.544Z,98685.72
2019-04-27T13:18:05.573Z,98676.33
2019-04-27T13:19:40.137Z,98679.08
2019-04-27T13:21:15.688Z,98677.05
2019-04-27T13:22:50.314Z,98675.98
2019-04-27T13:24:26.106Z,98673.16
2019-04-27T13:26:00.421Z,98671.53
2019-04-27T13:27:34.629Z,98670.23
2019-04-27T13:29:08.855Z,98669.94
2019-04-27T13:30:43.114Z,98663.86
2019-04-27T13:32:17.333Z,98659.02
2019-04-27T13:33:51.549Z,98655.89
2019-04-27T13:35:25.935Z,98653.83
2019-04-27T13:37:01.965Z,98655.47
2019-04-27T13:38:36.587Z,98650.56
2019-04-27T13:40:17.045Z,98643.56
2019-04-27T13:41:51.538Z,98642.78
2019-04-27T13:43:33.314Z,98648.92
2019-04-27T13:45:09.172Z,98649.09
2019-04-27T13:46:57.271Z,98647.84
2019-04-27T13:48:51.321Z,98642.63
2019-04-27T13:50:27.107Z,98645.03
2019-04-27T13:52:02.980Z,98642.40
2019-04-27T13:53:37.225Z,98636.94
2019-04-27T13:55:11.735Z,98643.70
2019-04-27T13:56:47.636Z,98637.53
2019-04-27T13:58:21.880Z,98642.78
2019-04-27T13:59:56.220Z,98641.30
2019-04-27T14:01:30.515Z,98645.22
2019-04-27T14:03:05.341Z,98640.39
2019-04-27T14:04:39.596Z,98639.38
2019-04-27T14:06:13.917Z,98640.62
2019-04-27T14:07:49.435Z,98628.80
2019-04-27T14:09:24.007Z,98631.59
2019-04-27T14:10:58.841Z,98641.67
2019-04-27T14:12:34.140Z,98633.81
2019-04-27T14:14:08.402Z,98638.64
2019-04-27T14:15:42.628Z,98639.14
2019-04-27T14:17:19.301Z,98636.02
2019-04-27T14:18:53.762Z,98640.83
2019-04-27T14:20:28.726Z,98640.62
2019-04-27T14:22:03.010Z,98640.02
2019-04-27T14:23:38.553Z,98638.67
2019-04-27T14:25:13.391Z,98638.99
2019-04-27T14:26:48.578Z,98634.75
2019-04-27T14:28:23.031Z,98633.19
2019-04-27T14:29:59.567Z,98629.11
2019-04-27T14:31:34.100Z,98621.00
2019-04-27T14:33:08.531Z,98618.83
2019-04-27T14:34:43.014Z,98615.72
2019-04-27T14:36:18.243Z,98614.52
2019-04-27T14:37:52.556Z,98606.68
2019-04-27T14:39:28.526Z,98612.91
2019-04-27T14:41:02.753Z,98612.11
2019-04-27T14:42:36.954Z,98609.88
2019-04-27T14:44:11.177Z,98609.55
2019-04-27T14:45:48.484Z,98613.67
2019-04-27T14:47:22.840Z,98610.72
2019-04-27T14:48:57.048Z,98612.17
2019-04-27T14:50:31.628Z,98617.73
2019-04-27T14:52:06.248Z,98624.56
2019-04-27T14:53:40.533Z,98632.33
2019-04-27T14:55:14.752Z,98623.58
2019-04-27T14:56:49.021Z,98620.08
2019-04-27T14:58:23.233Z,98615.72
2019-04-27T14:59:58.374Z,98617.52
2019-04-27T15:01:33.381Z,98629.11
2019-04-27T15:03:07.712Z,98639.60
2019-04-27T15:04:42.414Z,98651.31
2019-04-27T15:06:16.952Z,98659.00
2019-04-27T15:07:51.776Z,98667.22
2019-04-27T15:09:26.136Z,98670.75
2019-04-27T15:11:00.353Z,98676.69
2019-04-27T15:12:34.580Z,98683.46
2019-04-27T15:14:09.192Z,98682.53
2019-04-27T15:15:43.774Z,98676.68
2019-04-27T15:17:23.283Z,98692.80
2019-04-27T15:18:55.508Z,98703.20
2019-04-27T15:20:41.638Z,98737.14
2019-04-27T15:22:19.619Z,98769.62
2019-04-27T15:23:53.416Z,98744.63
2019-04-27T15:25:27.637Z,98762.69
2019-04-27T15:27:02.291Z,98778.39
2019-04-27T15:28:38.356Z,98794.50
2019-04-27T15:30:17.988Z,98812.73
2019-04-27T15:31:55.858Z,98828.60
2019-04-27T15:33:51.432Z,98857.98
2019-04-27T15:35:35.543Z,98876.83
2019-04-27T15:37:12.181Z,98874.05
2019-04-27T15:38:51.355Z,98897.15
2019-04-27T15:40:28.940Z,98893.68
2019-04-27T15:42:08.020Z,98876.69
2019-04-27T15:43:42.464Z,98873.61
2019-04-27T15:45:22.859Z,98884.12
2019-04-27T15:46:52.692Z,98900.55
2019-04-27T15:48:30.489Z,98907.20
2019-04-27T15:50:02.881Z,98899.60
2019-04-27T15:51:39.001Z,98907.06
2019-04-27T15:53:13.216Z,98909.55
2019-04-27T15:54:48.137Z,98912.34
2019-04-27T15:56:22.548Z,98909.02
2019-04-27T15:57:56.870Z,98909.14
2019-04-27T15:59:37.729Z,98905.52
2019-04-27T16:01:09.878Z,98903.36
2019-04-27T16:02:44.544Z,98903.63
2019-04-27T16:04:19.307Z,98908.38
2019-04-27T16:05:53.535Z,98902.89
2019-04-27T16:07:30.385Z,98905.04
2019-04-27T16:09:07.695Z,98898.06
2019-04-27T16:10:42.180Z,98901.53
2019-04-27T16:12:18.028Z,98902.87
2019-04-27T16:13:52.316Z,98904.95
2019-04-27T16:15:27.913Z,98915.33
2019-04-27T16:17:03.031Z,98905.27
2019-04-27T16:18:38.821Z,98909.97
2019-04-27T16:20:22.501Z,98906.83
2019-04-27T16:21:54.094Z,98915.02
2019-04-27T16:23:28.215Z,98918.14
2019-04-27T16:25:03.875Z,98918.40
2019-04-27T16:26:39.062Z,98912.50
2019-04-27T16:28:14.372Z,98911.78
2019-04-27T16:29:49.214Z,98915.34
2019-04-27T16:31:24.809Z,98921.19
2019-04-27T16:32:59.498Z,98938.43
2019-04-27T16:34:37.846Z,98954.92
2019-04-27T16:36:09.762Z,98966.03
2019-04-27T16:37:52.101Z,98973.59
2019-04-27T16:39:24.756Z,98976.61
2019-04-27T16:41:03.203Z,98984.64
2019-04-27T16:42:35.424Z,98988.99
2019-04-27T16:44:10.895Z,98992.98
2019-04-27T16:45:45.667Z,99010.33
2019-04-27T16:47:24.318Z,99006.45
2019-04-27T16:48:55.817Z,99019.85
2019-04-27T16:50:30.044Z,99018.36
2019-04-27T16:52:04.429Z,99008.58
2019-04-27T16:53:41.121Z,98999.42
2019-04-27T16:55:17.363Z,99006.77
2019-04-27T16:56:56.648Z,98993.56
2019-04-27T16:58:26.365Z,98986.48
2019-04-27T17:00:01.138Z,98969.08
2019-04-27T17:01:40.043Z,98966.57
2019-04-27T17:03:11.696Z,98971.06
2019-04-27T17:04:52.810Z,98994.04
2019-04-27T17:06:21.856Z,99001.73
2019-04-27T17:07:56.093Z,98996.52
2019-04-27T17:09:30.360Z,98993.58
2019-04-27T17:11:11.402Z,98993.17
2019-04-27T17:12:45.633Z,98985.30
2019-04-27T17:14:20.569Z,98981.44
2019-04-27T17:16:08.627Z,98991.56
2019-04-27T17:17:50.860Z,99008.45
2019-04-27T17:19:25.244Z,99025.09
2019-04-27T17:21:05.548Z,99032.55
2019-04-27T17:22:38.460Z,99034.92
2019-04-27T17:24:14.700Z,99045.63
2019-04-27T17:25:52.975Z,99042.38
2019-04-27T17:27:31.217Z,99055.62
2019-04-27T17:29:15.976Z,99057.80
2019-04-27T17:30:46.112Z,99063.49
2019-04-27T17:32:30.296Z,99070.95
2019-04-27T17:34:03.691Z,99073.51
2019-04-27T17:35:41.759Z,99070.80
2019-04-27T17:37:13.916Z,99082.77
2019-04-27T17:38:50.996Z,99083.88
2019-04-27T17:40:24.145Z,99093.67
2019-04-27T17:41:58.781Z,99103.38
2019-04-27T17:43:33.265Z,99107.92
2019-04-27T17:45:09.006Z,99116.20
2019-04-27T17:46:49.427Z,99123.54
2019-04-27T17:48:19.309Z,99135.13
2019-04-27T17:49:53.516Z,99146.34
2019-04-27T17:51:28.534Z,99152.05
2019-04-27T17:53:04.904Z,99156.47
2019-04-27T17:54:40.837Z,99159.52
2019-04-27T17:56:15.073Z,99166.11
2019-04-27T17:57:49.992Z,99169.59
2019-04-27T17:59:24.344Z,99172.69
2019-04-27T18:00:59.910Z,99185.13
2019-04-27T18:02:38.983Z,99183.72
2019-04-27T18:04:10.695Z,99180.54
2019-04-27T18:05:50.563Z,99169.09
2019-04-27T18:07:21.148Z,99165.37
2019-04-27T18:09:00.868Z,99168.16
2019-04-27T18:10:31.270Z,99165.52
2019-04-27T18:12:08.099Z,99163.91
2019-04-27T18:13:42.150Z,99176.84
2019-04-27T18:15:16.642Z,99174.93
2019-04-27T18:16:52.495Z,99186.70
2019-04-27T18:18:38.011Z,99191.92
2019-04-27T18:20:18.383Z,99189.73
2019-04-27T18:22:00.904Z,99184.22
2019-04-27T18:23:36.963Z,99181.83
2019-04-27T18:25:11.440Z,99172.03
2019-04-27T18:26:51.615Z,99166.16
2019-04-27T18:28:24.874Z,99157.38
2019-04-27T18:30:03.335Z,99159.15
2019-04-27T18:31:38.285Z,99145.94
2019-04-27T18:33:14.254Z,99137.38
2019-04-27T18:34:49.466Z,99140.81
2019-04-27T18:36:24.364Z,99135.52
2019-04-27T18:38:01.709Z,99134.52
2019-04-27T18:39:34.416Z,99130.00
2019-04-27T18:41:11.642Z,99128.31
2019-04-27T18:42:44.625Z,99131.05
2019-04-27T18:44:19.238Z,99125.34
2019-04-27T18:45:53.742Z,99128.40
2019-04-27T18:47:31.292Z,99126.22
2019-04-27T18:49:05.523Z,99121.88
2019-04-27T18:50:43.621Z,99124.73
2019-04-27T18:52:35.557Z,99117.83
2019-04-27T18:54:11.465Z,99118.87
2019-04-27T18:55:45.734Z,99117.58
2019-04-27T18:57:20.008Z,99115.88
2019-04-27T18:58:54.225Z,99108.48
2019-04-27T19:00:29.510Z,99110.06
2019-04-27T19:02:04.072Z,99115.77
2019-04-27T19:03:39.142Z,99121.75